sensor_id;sensor_type;location;lat;lon;timestamp;P1;durP1;ratioP1;P2;durP2;ratioP2
62852;SDS011;49205;44.868;38.140;2023-04-24T00:01:13;9.10;;;5.58;;
62852;SDS011;49205;44.868;38.140;2023-04-24T00:03:43;9.78;;;6.50;;
62852;SDS011;49205;44.868;38.140;2023-04-24T00:06:12;10.82;;;5.75;;
62852;SDS011;49205;44.868;38.140;2023-04-24T00:08:43;8.45;;;5.17;;
62852;SDS011;49205;44.868;38.140;2023-04-24T00:11:12;10.13;;;5.78;;
62852;SDS011;49205;44.868;38.140;2023-04-24T00:13:41;9.08;;;5.75;;
62852;SDS011;49205;44.868;38.140;2023-04-24T00:16:10;7.72;;;5.25;;
62852;SDS011;49205;44.868;38.140;2023-04-24T00:18:39;8.88;;;5.70;;
62852;SDS011;49205;44.868;38.140;2023-04-24T00:21:09;8.18;;;5.58;;
62852;SDS011;49205;44.868;38.140;2023-04-24T00:23:38;8.48;;;6.60;;
62852;SDS011;49205;44.868;38.140;2023-04-24T00:26:07;9.33;;;5.50;;
62852;SDS011;49205;44.868;38.140;2023-04-24T00:28:36;9.95;;;6.30;;
62852;SDS011;49205;44.868;38.140;2023-04-24T00:31:05;10.85;;;6.42;;
62852;SDS011;49205;44.868;38.140;2023-04-24T00:33:35;9.18;;;5.87;;
62852;SDS011;49205;44.868;38.140;2023-04-24T00:36:04;9.45;;;5.22;;
62852;SDS011;49205;44.868;38.140;2023-04-24T00:38:34;7.55;;;5.65;;
62852;SDS011;49205;44.868;38.140;2023-04-24T00:41:03;8.93;;;5.65;;
62852;SDS011;49205;44.868;38.140;2023-04-24T00:43:33;7.30;;;5.42;;
62852;SDS011;49205;44.868;38.140;2023-04-24T00:46:02;9.75;;;6.17;;
62852;SDS011;49205;44.868;38.140;2023-04-24T00:48:32;9.85;;;6.15;;
62852;SDS011;49205;44.868;38.140;2023-04-24T00:51:02;12.63;;;5.97;;
62852;SDS011;49205;44.868;38.140;2023-04-24T00:53:31;9.15;;;6.03;;
62852;SDS011;49205;44.868;38.140;2023-04-24T00:56:00;9.28;;;6.55;;
62852;SDS011;49205;44.868;38.140;2023-04-24T00:58:30;11.18;;;6.75;;
62852;SDS011;49205;44.868;38.140;2023-04-24T01:00:59;12.05;;;7.35;;
62852;SDS011;49205;44.868;38.140;2023-04-24T01:03:29;8.80;;;6.30;;
62852;SDS011;49205;44.868;38.140;2023-04-24T01:05:59;9.53;;;6.58;;
62852;SDS011;49205;44.868;38.140;2023-04-24T01:08:28;10.70;;;6.30;;
62852;SDS011;49205;44.868;38.140;2023-04-24T01:10:58;8.33;;;6.00;;
62852;SDS011;49205;44.868;38.140;2023-04-24T01:13:27;7.55;;;6.33;;
62852;SDS011;49205;44.868;38.140;2023-04-24T01:15:57;9.33;;;5.90;;
62852;SDS011;49205;44.868;38.140;2023-04-24T01:18:27;10.13;;;6.25;;
62852;SDS011;49205;44.868;38.140;2023-04-24T01:20:57;9.83;;;5.75;;
62852;SDS011;49205;44.868;38.140;2023-04-24T01:23:27;10.28;;;6.20;;
62852;SDS011;49205;44.868;38.140;2023-04-24T01:25:56;11.12;;;5.92;;
62852;SDS011;49205;44.868;38.140;2023-04-24T01:28:26;8.80;;;6.42;;
62852;SDS011;49205;44.868;38.140;2023-04-24T01:30:55;9.80;;;6.97;;
62852;SDS011;49205;44.868;38.140;2023-04-24T01:33:24;8.60;;;5.80;;
62852;SDS011;49205;44.868;38.140;2023-04-24T01:35:54;9.88;;;6.10;;
62852;SDS011;49205;44.868;38.140;2023-04-24T01:38:23;9.18;;;6.62;;
62852;SDS011;49205;44.868;38.140;2023-04-24T01:40:52;12.37;;;6.60;;
62852;SDS011;49205;44.868;38.140;2023-04-24T01:43:21;8.88;;;7.00;;
62852;SDS011;49205;44.868;38.140;2023-04-24T01:45:51;10.32;;;6.42;;
62852;SDS011;49205;44.868;38.140;2023-04-24T01:48:20;16.40;;;5.85;;
62852;SDS011;49205;44.868;38.140;2023-04-24T01:50:50;8.90;;;5.75;;
62852;SDS011;49205;44.868;38.140;2023-04-24T01:53:19;11.97;;;6.60;;
62852;SDS011;49205;44.868;38.140;2023-04-24T01:55:48;10.13;;;6.47;;
62852;SDS011;49205;44.868;38.140;2023-04-24T01:58:17;8.83;;;5.53;;
62852;SDS011;49205;44.868;38.140;2023-04-24T02:00:46;9.18;;;6.58;;
62852;SDS011;49205;44.868;38.140;2023-04-24T02:03:15;12.55;;;6.28;;
62852;SDS011;49205;44.868;38.140;2023-04-24T02:05:44;9.08;;;5.55;;
62852;SDS011;49205;44.868;38.140;2023-04-24T02:08:13;12.18;;;6.87;;
62852;SDS011;49205;44.868;38.140;2023-04-24T02:10:42;12.40;;;6.55;;
62852;SDS011;49205;44.868;38.140;2023-04-24T02:13:11;12.85;;;7.60;;
62852;SDS011;49205;44.868;38.140;2023-04-24T02:15:42;11.68;;;6.37;;
62852;SDS011;49205;44.868;38.140;2023-04-24T02:18:11;10.48;;;6.60;;
62852;SDS011;49205;44.868;38.140;2023-04-24T02:20:40;11.60;;;6.37;;
62852;SDS011;49205;44.868;38.140;2023-04-24T02:23:10;13.98;;;6.50;;
62852;SDS011;49205;44.868;38.140;2023-04-24T02:25:40;12.95;;;6.35;;
62852;SDS011;49205;44.868;38.140;2023-04-24T02:28:09;10.45;;;6.20;;
62852;SDS011;49205;44.868;38.140;2023-04-24T02:30:38;10.50;;;6.67;;
62852;SDS011;49205;44.868;38.140;2023-04-24T02:33:08;10.58;;;6.20;;
62852;SDS011;49205;44.868;38.140;2023-04-24T02:35:37;10.28;;;5.58;;
62852;SDS011;49205;44.868;38.140;2023-04-24T02:38:06;10.20;;;6.37;;
62852;SDS011;49205;44.868;38.140;2023-04-24T02:40:36;11.78;;;6.75;;
62852;SDS011;49205;44.868;38.140;2023-04-24T02:43:05;9.45;;;6.30;;
62852;SDS011;49205;44.868;38.140;2023-04-24T02:45:34;9.10;;;6.12;;
62852;SDS011;49205;44.868;38.140;2023-04-24T02:48:04;11.03;;;6.08;;
62852;SDS011;49205;44.868;38.140;2023-04-24T02:50:34;9.53;;;5.92;;
62852;SDS011;49205;44.868;38.140;2023-04-24T02:53:03;10.72;;;6.53;;
62852;SDS011;49205;44.868;38.140;2023-04-24T02:55:32;11.45;;;5.87;;
62852;SDS011;49205;44.868;38.140;2023-04-24T02:58:01;8.40;;;6.08;;
62852;SDS011;49205;44.868;38.140;2023-04-24T03:00:31;14.58;;;8.03;;
62852;SDS011;49205;44.868;38.140;2023-04-24T03:03:00;9.68;;;6.15;;
62852;SDS011;49205;44.868;38.140;2023-04-24T03:05:29;10.23;;;6.67;;
62852;SDS011;49205;44.868;38.140;2023-04-24T03:07:58;8.25;;;6.40;;
62852;SDS011;49205;44.868;38.140;2023-04-24T03:10:27;9.45;;;5.35;;
62852;SDS011;49205;44.868;38.140;2023-04-24T03:12:56;10.38;;;6.58;;
62852;SDS011;49205;44.868;38.140;2023-04-24T03:15:26;8.43;;;6.05;;
62852;SDS011;49205;44.868;38.140;2023-04-24T03:17:55;11.78;;;7.08;;
62852;SDS011;49205;44.868;38.140;2023-04-24T03:20:24;14.87;;;7.72;;
62852;SDS011;49205;44.868;38.140;2023-04-24T03:22:54;9.68;;;6.42;;
62852;SDS011;49205;44.868;38.140;2023-04-24T03:25:24;11.00;;;6.28;;
62852;SDS011;49205;44.868;38.140;2023-04-24T03:27:55;10.68;;;6.95;;
62852;SDS011;49205;44.868;38.140;2023-04-24T03:30:25;13.53;;;6.53;;
62852;SDS011;49205;44.868;38.140;2023-04-24T03:32:56;9.53;;;6.70;;
62852;SDS011;49205;44.868;38.140;2023-04-24T03:35:26;12.10;;;7.05;;
62852;SDS011;49205;44.868;38.140;2023-04-24T03:37:56;16.25;;;8.58;;
62852;SDS011;49205;44.868;38.140;2023-04-24T03:40:43;10.55;;;7.15;;
62852;SDS011;49205;44.868;38.140;2023-04-24T03:43:16;11.63;;;6.87;;
62852;SDS011;49205;44.868;38.140;2023-04-24T03:45:46;9.43;;;6.00;;
62852;SDS011;49205;44.868;38.140;2023-04-24T03:48:16;11.10;;;7.78;;
62852;SDS011;49205;44.868;38.140;2023-04-24T03:50:46;11.38;;;7.20;;
62852;SDS011;49205;44.868;38.140;2023-04-24T03:53:15;12.82;;;7.08;;
62852;SDS011;49205;44.868;38.140;2023-04-24T03:55:44;11.15;;;6.62;;
62852;SDS011;49205;44.868;38.140;2023-04-24T03:58:14;15.20;;;7.58;;
62852;SDS011;49205;44.868;38.140;2023-04-24T04:00:44;13.38;;;8.38;;
62852;SDS011;49205;44.868;38.140;2023-04-24T04:03:19;11.38;;;7.70;;
62852;SDS011;49205;44.868;38.140;2023-04-24T04:05:48;11.63;;;7.72;;
62852;SDS011;49205;44.868;38.140;2023-04-24T04:08:18;11.78;;;7.45;;
62852;SDS011;49205;44.868;38.140;2023-04-24T04:10:48;11.95;;;7.20;;
62852;SDS011;49205;44.868;38.140;2023-04-24T04:13:17;11.28;;;7.22;;
62852;SDS011;49205;44.868;38.140;2023-04-24T04:15:46;13.55;;;7.70;;
62852;SDS011;49205;44.868;38.140;2023-04-24T04:18:16;13.38;;;7.95;;
62852;SDS011;49205;44.868;38.140;2023-04-24T04:20:45;16.77;;;7.75;;
62852;SDS011;49205;44.868;38.140;2023-04-24T04:23:16;9.55;;;7.05;;
62852;SDS011;49205;44.868;38.140;2023-04-24T04:25:46;12.98;;;8.53;;
62852;SDS011;49205;44.868;38.140;2023-04-24T04:28:18;11.93;;;7.35;;
62852;SDS011;49205;44.868;38.140;2023-04-24T04:30:48;15.25;;;8.80;;
62852;SDS011;49205;44.868;38.140;2023-04-24T04:33:20;11.22;;;7.08;;
62852;SDS011;49205;44.868;38.140;2023-04-24T04:35:49;10.72;;;7.20;;
62852;SDS011;49205;44.868;38.140;2023-04-24T04:38:22;14.65;;;10.13;;
62852;SDS011;49205;44.868;38.140;2023-04-24T04:40:55;10.38;;;7.78;;
62852;SDS011;49205;44.868;38.140;2023-04-24T04:43:26;11.95;;;7.37;;
62852;SDS011;49205;44.868;38.140;2023-04-24T04:45:55;12.33;;;7.92;;
62852;SDS011;49205;44.868;38.140;2023-04-24T04:48:29;14.13;;;8.90;;
62852;SDS011;49205;44.868;38.140;2023-04-24T04:51:00;13.45;;;8.68;;
62852;SDS011;49205;44.868;38.140;2023-04-24T04:53:29;15.10;;;7.97;;
62852;SDS011;49205;44.868;38.140;2023-04-24T04:55:58;10.25;;;7.20;;
62852;SDS011;49205;44.868;38.140;2023-04-24T04:58:29;13.88;;;8.23;;
62852;SDS011;49205;44.868;38.140;2023-04-24T05:00:59;19.42;;;8.48;;
62852;SDS011;49205;44.868;38.140;2023-04-24T05:03:30;14.93;;;7.87;;
62852;SDS011;49205;44.868;38.140;2023-04-24T05:06:03;19.00;;;7.08;;
62852;SDS011;49205;44.868;38.140;2023-04-24T05:08:34;15.15;;;8.03;;
62852;SDS011;49205;44.868;38.140;2023-04-24T05:11:05;16.15;;;8.28;;
62852;SDS011;49205;44.868;38.140;2023-04-24T05:13:34;12.40;;;7.78;;
62852;SDS011;49205;44.868;38.140;2023-04-24T05:16:05;12.00;;;7.40;;
62852;SDS011;49205;44.868;38.140;2023-04-24T05:18:34;12.98;;;7.92;;
62852;SDS011;49205;44.868;38.140;2023-04-24T05:21:04;12.07;;;7.97;;
62852;SDS011;49205;44.868;38.140;2023-04-24T05:23:35;13.60;;;8.55;;
62852;SDS011;49205;44.868;38.140;2023-04-24T05:26:04;13.43;;;7.17;;
62852;SDS011;49205;44.868;38.140;2023-04-24T05:28:34;8.23;;;6.50;;
62852;SDS011;49205;44.868;38.140;2023-04-24T05:31:05;23.60;;;8.23;;
62852;SDS011;49205;44.868;38.140;2023-04-24T05:33:34;14.98;;;7.80;;
62852;SDS011;49205;44.868;38.140;2023-04-24T05:36:04;9.75;;;6.87;;
62852;SDS011;49205;44.868;38.140;2023-04-24T05:38:34;10.28;;;7.05;;
62852;SDS011;49205;44.868;38.140;2023-04-24T05:41:04;11.22;;;7.83;;
62852;SDS011;49205;44.868;38.140;2023-04-24T05:43:33;8.48;;;6.78;;
62852;SDS011;49205;44.868;38.140;2023-04-24T05:46:03;15.88;;;8.83;;
62852;SDS011;49205;44.868;38.140;2023-04-24T05:48:32;14.18;;;7.95;;
62852;SDS011;49205;44.868;38.140;2023-04-24T05:51:03;8.78;;;7.67;;
62852;SDS011;49205;44.868;38.140;2023-04-24T05:53:32;10.10;;;7.33;;
62852;SDS011;49205;44.868;38.140;2023-04-24T05:56:01;9.40;;;7.03;;
62852;SDS011;49205;44.868;38.140;2023-04-24T05:58:31;10.48;;;6.80;;
62852;SDS011;49205;44.868;38.140;2023-04-24T06:01:00;9.00;;;7.00;;
62852;SDS011;49205;44.868;38.140;2023-04-24T06:03:30;8.80;;;6.90;;
62852;SDS011;49205;44.868;38.140;2023-04-24T06:05:59;10.10;;;7.35;;
62852;SDS011;49205;44.868;38.140;2023-04-24T06:08:28;23.70;;;15.00;;
62852;SDS011;49205;44.868;38.140;2023-04-24T06:10:58;12.95;;;8.38;;
62852;SDS011;49205;44.868;38.140;2023-04-24T06:13:27;12.88;;;7.83;;
62852;SDS011;49205;44.868;38.140;2023-04-24T06:16:04;13.48;;;8.53;;
62852;SDS011;49205;44.868;38.140;2023-04-24T06:18:35;13.60;;;7.67;;
62852;SDS011;49205;44.868;38.140;2023-04-24T06:21:04;11.40;;;8.45;;
62852;SDS011;49205;44.868;38.140;2023-04-24T06:23:33;14.35;;;8.08;;
62852;SDS011;49205;44.868;38.140;2023-04-24T06:26:02;12.93;;;8.68;;
62852;SDS011;49205;44.868;38.140;2023-04-24T06:28:32;18.00;;;9.73;;
62852;SDS011;49205;44.868;38.140;2023-04-24T06:31:02;11.93;;;8.60;;
62852;SDS011;49205;44.868;38.140;2023-04-24T06:33:32;14.13;;;10.65;;
62852;SDS011;49205;44.868;38.140;2023-04-24T06:36:01;14.40;;;8.68;;
62852;SDS011;49205;44.868;38.140;2023-04-24T06:38:30;34.03;;;19.50;;
62852;SDS011;49205;44.868;38.140;2023-04-24T06:41:00;13.43;;;9.43;;
62852;SDS011;49205;44.868;38.140;2023-04-24T06:43:31;14.05;;;10.82;;
62852;SDS011;49205;44.868;38.140;2023-04-24T06:46:00;14.75;;;10.35;;
62852;SDS011;49205;44.868;38.140;2023-04-24T06:48:30;20.00;;;12.10;;
62852;SDS011;49205;44.868;38.140;2023-04-24T06:50:59;26.20;;;14.28;;
62852;SDS011;49205;44.868;38.140;2023-04-24T06:53:28;19.17;;;12.93;;
62852;SDS011;49205;44.868;38.140;2023-04-24T06:55:57;20.65;;;13.10;;
62852;SDS011;49205;44.868;38.140;2023-04-24T06:58:26;19.95;;;13.88;;
62852;SDS011;49205;44.868;38.140;2023-04-24T07:00:55;20.80;;;14.23;;
62852;SDS011;49205;44.868;38.140;2023-04-24T07:03:24;26.82;;;16.00;;
62852;SDS011;49205;44.868;38.140;2023-04-24T07:05:54;18.87;;;14.18;;
62852;SDS011;49205;44.868;38.140;2023-04-24T07:08:24;26.57;;;16.00;;
62852;SDS011;49205;44.868;38.140;2023-04-24T07:10:53;23.87;;;15.15;;
62852;SDS011;49205;44.868;38.140;2023-04-24T07:13:23;21.33;;;13.43;;
62852;SDS011;49205;44.868;38.140;2023-04-24T07:15:53;17.73;;;12.37;;
62852;SDS011;49205;44.868;38.140;2023-04-24T07:18:23;18.67;;;12.53;;
62852;SDS011;49205;44.868;38.140;2023-04-24T07:20:51;15.23;;;10.13;;
62852;SDS011;49205;44.868;38.140;2023-04-24T07:23:20;16.12;;;10.00;;
62852;SDS011;49205;44.868;38.140;2023-04-24T07:25:50;17.10;;;9.63;;
62852;SDS011;49205;44.868;38.140;2023-04-24T07:28:19;15.00;;;10.15;;
62852;SDS011;49205;44.868;38.140;2023-04-24T07:30:48;13.20;;;8.48;;
62852;SDS011;49205;44.868;38.140;2023-04-24T07:33:17;14.20;;;9.58;;
62852;SDS011;49205;44.868;38.140;2023-04-24T07:35:46;10.98;;;8.80;;
62852;SDS011;49205;44.868;38.140;2023-04-24T07:38:16;13.35;;;8.33;;
62852;SDS011;49205;44.868;38.140;2023-04-24T07:40:47;12.23;;;8.08;;
62852;SDS011;49205;44.868;38.140;2023-04-24T07:43:16;12.20;;;8.95;;
62852;SDS011;49205;44.868;38.140;2023-04-24T07:45:46;13.05;;;8.18;;
62852;SDS011;49205;44.868;38.140;2023-04-24T07:48:15;15.50;;;8.65;;
62852;SDS011;49205;44.868;38.140;2023-04-24T07:50:44;11.60;;;8.70;;
62852;SDS011;49205;44.868;38.140;2023-04-24T07:53:14;12.37;;;8.45;;
62852;SDS011;49205;44.868;38.140;2023-04-24T07:55:43;11.05;;;8.15;;
62852;SDS011;49205;44.868;38.140;2023-04-24T07:58:12;12.25;;;8.05;;
62852;SDS011;49205;44.868;38.140;2023-04-24T08:00:41;11.65;;;8.45;;
62852;SDS011;49205;44.868;38.140;2023-04-24T08:03:10;12.70;;;9.40;;
62852;SDS011;49205;44.868;38.140;2023-04-24T08:05:39;10.48;;;8.35;;
62852;SDS011;49205;44.868;38.140;2023-04-24T08:08:09;11.80;;;8.60;;
62852;SDS011;49205;44.868;38.140;2023-04-24T08:10:38;12.15;;;8.70;;
62852;SDS011;49205;44.868;38.140;2023-04-24T08:13:07;10.58;;;7.92;;
62852;SDS011;49205;44.868;38.140;2023-04-24T08:15:38;11.48;;;8.68;;
62852;SDS011;49205;44.868;38.140;2023-04-24T08:18:07;13.53;;;9.33;;
62852;SDS011;49205;44.868;38.140;2023-04-24T08:20:38;12.47;;;8.35;;
62852;SDS011;49205;44.868;38.140;2023-04-24T08:23:07;11.20;;;8.25;;
62852;SDS011;49205;44.868;38.140;2023-04-24T08:25:36;13.22;;;8.23;;
